Time;durP1;ratioP1;P1;durP2;ratioP2;P2;SDS_P1;SDS_P2;PMS_P1;PMS_P2;Temp;Humidity;BMP_temperature;BMP_pressure;BME280_temperature;BME280_humidity;BME280_pressure;Samples;Min_cycle;Max_cycle;Signal;HPM_P1;HPM_P2
2023/01/04 00:01:34;;;;;;;4.25;3.95;;;;;;;5.92;100.00;99742.06;4170038;28;20811;-54
2023/01/04 00:03:36;;;;;;;4.25;3.85;;;;;;;5.95;100.00;99747.09;4171774;28;20291;-51
2023/01/04 00:05:38;;;;;;;8.57;4.32;;;;;;;5.90;100.00;99748.72;4169430;28;20219;-52
2023/01/04 00:07:39;;;;;;;3.35;3.08;;;;;;;5.91;100.00;99753.09;4169213;28;20862;-52
2023/01/04 00:09:41;;;;;;;4.85;4.45;;;;;;;5.89;100.00;99752.47;4170602;28;20272;-52
2023/01/04 00:11:43;;;;;;;3.55;3.25;;;;;;;5.88;100.00;99748.06;4171256;28;20211;-52
2023/01/04 00:13:46;;;;;;;4.28;3.97;;;;;;;5.88;100.00;99740.75;4171063;28;20690;-51
2023/01/04 00:15:48;;;;;;;3.78;3.47;;;;;;;5.89;100.00;99736.16;4169914;28;21072;-52
2023/01/04 00:17:50;;;;;;;13.00;4.07;;;;;;;5.87;100.00;99739.06;4171591;28;20263;-54
2023/01/04 00:19:51;;;;;;;4.35;4.00;;;;;;;5.81;100.00;99737.09;4174388;28;20228;-53
2023/01/04 00:21:56;;;;;;;3.60;3.30;;;;;;;5.76;100.00;99738.69;4170858;28;21141;-51
2023/01/04 00:23:59;;;;;;;4.22;3.90;;;;;;;5.78;100.00;99739.34;4170042;28;20251;-54
2023/01/04 00:26:01;;;;;;;3.67;3.15;;;;;;;5.85;100.00;99737.56;4168829;28;20212;-53
2023/01/04 00:28:03;;;;;;;3.67;3.17;;;;;;;5.84;100.00;99734.00;4167525;28;20228;-51
2023/01/04 00:30:05;;;;;;;2.60;2.40;;;;;;;5.79;100.00;99730.16;4149649;28;20228;-52
2023/01/04 00:32:07;;;;;;;4.00;3.70;;;;;;;5.84;100.00;99738.59;4169075;28;20310;-52
2023/01/04 00:34:10;;;;;;;4.03;3.72;;;;;;;5.79;100.00;99731.03;4172372;28;20208;-53
2023/01/04 00:36:13;;;;;;;2.90;2.60;;;;;;;5.81;100.00;99728.09;4172732;28;20212;-52
2023/01/04 00:38:14;;;;;;;3.03;2.83;;;;;;;5.83;100.00;99731.50;4169567;28;20597;-53
2023/01/04 00:40:16;;;;;;;3.72;3.38;;;;;;;5.72;100.00;99726.50;4169484;28;20767;-51
2023/01/04 00:42:18;;;;;;;3.78;3.45;;;;;;;5.79;100.00;99719.28;4170021;28;20241;-53
2023/01/04 00:44:20;;;;;;;4.35;3.95;;;;;;;5.85;100.00;99718.56;4170794;28;20227;-51
2023/01/04 00:46:22;;;;;;;3.75;3.45;;;;;;;5.84;100.00;99712.28;4175678;28;20637;-52
2023/01/04 00:48:24;;;;;;;3.08;2.78;;;;;;;5.84;100.00;99708.72;4169903;28;20326;-51
2023/01/04 00:50:26;;;;;;;3.85;3.55;;;;;;;5.84;100.00;99714.97;4169321;28;20813;-52
2023/01/04 00:52:28;;;;;;;7.38;3.92;;;;;;;5.78;100.00;99712.19;4168889;28;20208;-52
2023/01/04 00:54:29;;;;;;;3.60;3.30;;;;;;;5.85;100.00;99705.84;4168780;28;20971;-52
2023/01/04 00:56:32;;;;;;;4.25;3.95;;;;;;;5.92;100.00;99708.63;4184042;28;20288;-52
2023/01/04 00:58:34;;;;;;;4.57;4.18;;;;;;;5.91;100.00;99709.66;4171076;28;20568;-51
2023/01/04 01:00:36;;;;;;;3.47;3.17;;;;;;;5.99;100.00;99712.25;4169746;28;21674;-51
2023/01/04 01:02:38;;;;;;;4.05;3.75;;;;;;;5.89;100.00;99703.56;4170198;28;20212;-51
2023/01/04 01:04:40;;;;;;;3.72;3.42;;;;;;;5.91;100.00;99712.38;4171902;28;20212;-50
2023/01/04 01:06:42;;;;;;;3.92;3.58;;;;;;;5.89;100.00;99706.28;4153473;28;20207;-51
2023/01/04 01:08:43;;;;;;;3.83;3.53;;;;;;;5.88;100.00;99707.31;4170358;28;20299;-50
2023/01/04 01:10:45;;;;;;;4.00;3.70;;;;;;;5.91;100.00;99702.34;4169384;28;20289;-51
2023/01/04 01:12:47;;;;;;;3.97;3.67;;;;;;;5.98;100.00;99696.97;4169428;28;20246;-50
2023/01/04 01:14:49;;;;;;;4.05;3.60;;;;;;;6.00;100.00;99697.63;4170644;28;20209;-52
2023/01/04 01:16:51;;;;;;;3.33;3.03;;;;;;;6.05;100.00;99690.59;4170797;28;20212;-55
2023/01/04 01:18:58;;;;;;;3.92;3.63;;;;;;;5.96;100.00;99682.75;4170321;28;20671;-51
2023/01/04 01:20:59;;;;;;;4.10;3.80;;;;;;;5.99;100.00;99682.34;4169800;28;20303;-51
2023/01/04 01:23:01;;;;;;;3.78;3.45;;;;;;;6.04;100.00;99674.47;4156258;28;20674;-52
2023/01/04 01:25:04;;;;;;;3.80;3.08;;;;;;;5.93;100.00;99670.41;4170168;28;20235;-50
2023/01/04 01:27:05;;;;;;;7.28;4.22;;;;;;;5.99;100.00;99668.78;4170860;28;20212;-53
2023/01/04 01:29:07;;;;;;;8.68;4.38;;;;;;;6.01;100.00;99661.25;4167032;28;20270;-50
2023/01/04 01:31:12;;;;;;;3.60;3.33;;;;;;;6.02;100.00;99665.69;4154687;28;20225;-51
2023/01/04 01:33:14;;;;;;;3.53;3.22;;;;;;;5.97;100.00;99660.81;4169768;28;20272;-51
2023/01/04 01:35:16;;;;;;;3.65;3.20;;;;;;;5.94;100.00;99663.06;4183203;28;20576;-51
2023/01/04 01:37:18;;;;;;;3.42;3.17;;;;;;;5.99;100.00;99666.06;4167333;28;20566;-53
2023/01/04 01:39:20;;;;;;;3.85;3.55;;;;;;;6.05;100.00;99670.72;4170052;28;20262;-52
2023/01/04 01:41:29;;;;;;;3.63;3.33;;;;;;;6.03;100.00;99657.31;4152667;28;20235;-53
2023/01/04 01:43:48;;;;;;;3.33;2.78;;;;;;;6.02;100.00;99654.81;4169712;28;20208;-54
2023/01/04 01:45:54;;;;;;;3.45;3.15;;;;;;;6.01;100.00;99658.56;4185152;28;20673;-54
2023/01/04 01:48:01;;;;;;;5.22;3.42;;;;;;;6.06;100.00;99656.97;4156429;28;20227;-53
2023/01/04 01:50:03;;;;;;;2.38;2.20;;;;;;;5.99;100.00;99649.75;4168540;28;20282;-51
2023/01/04 01:52:10;;;;;;;2.92;2.72;;;;;;;5.94;100.00;99646.78;4153963;28;20239;-52
2023/01/04 01:54:19;;;;;;;2.85;2.45;;;;;;;6.01;100.00;99637.66;4168515;28;20303;-52
2023/01/04 01:56:21;;;;;;;2.65;2.45;;;;;;;5.99;100.00;99639.75;4185512;28;20195;-52
2023/01/04 01:58:30;;;;;;;3.67;2.85;;;;;;;6.06;100.00;99628.94;4169379;28;20259;-52
2023/01/04 02:00:32;;;;;;;2.53;2.33;;;;;;;6.05;100.00;99633.53;4165348;28;20330;-51
2023/01/04 02:02:34;;;;;;;2.60;2.40;;;;;;;6.04;100.00;99626.41;4169804;28;20761;-52
2023/01/04 02:04:39;;;;;;;6.90;2.38;;;;;;;5.99;100.00;99633.47;4168976;28;20239;-52
2023/01/04 02:06:45;;;;;;;3.83;3.50;;;;;;;6.03;100.00;99624.72;4170275;28;20548;-52
2023/01/04 02:08:47;;;;;;;4.38;4.00;;;;;;;5.98;100.00;99637.22;4169256;28;20196;-52
2023/01/04 02:10:49;;;;;;;2.42;2.22;;;;;;;5.97;100.00;99635.53;4167910;28;20268;-53
2023/01/04 02:12:51;;;;;;;3.03;2.75;;;;;;;6.02;100.00;99630.38;4170075;28;20304;-52
2023/01/04 02:14:53;;;;;;;4.10;2.63;;;;;;;6.03;100.00;99623.91;4171833;28;20262;-51
2023/01/04 02:16:55;;;;;;;3.13;2.47;;;;;;;6.06;100.00;99628.94;4171898;28;20227;-51
2023/01/04 02:19:22;;;;;;;3.47;2.83;;;;;;;6.03;100.00;99626.63;4173235;28;20785;-53
2023/01/04 02:21:51;;;;;;;3.70;2.65;;;;;;;6.03;100.00;99618.47;4183424;28;20208;-52
2023/01/04 02:24:41;;;;;;;2.47;2.28;;;;;;;6.05;100.00;99611.81;4157707;28;20239;-54
2023/01/04 02:27:09;;;;;;;3.10;2.88;;;;;;;6.03;100.00;99613.03;4164486;28;20239;-53
2023/01/04 02:29:13;;;;;;;2.30;2.10;;;;;;;6.01;100.00;99601.50;4168098;28;20208;-53
2023/01/04 02:31:33;;;;;;;3.58;3.22;;;;;;;6.02;100.00;99605.94;4179143;28;20745;-52
2023/01/04 02:33:50;;;;;;;2.58;2.30;;;;;;;6.03;100.00;99594.03;4164837;28;20243;-53
2023/01/04 02:36:25;;;;;;;6.45;3.35;;;;;;;6.02;100.00;99589.63;4168850;28;20240;-54
2023/01/04 02:38:33;;;;;;;3.13;2.40;;;;;;;6.13;100.00;99591.78;4168656;28;20582;-53
2023/01/04 02:40:40;;;;;;;2.95;2.67;;;;;;;6.14;100.00;99598.91;4170237;28;20227;-53
2023/01/04 02:45:38;;;;;;;3.60;2.92;;;;;;;6.19;100.00;99591.00;4170871;28;20205;-52
2023/01/04 02:52:22;;;;;;;3.17;2.35;;;;;;;6.25;100.00;99573.94;4171580;28;20236;-55
2023/01/04 02:54:28;;;;;;;9.50;3.45;;;;;;;6.20;100.00;99565.50;4173687;28;20236;-52
2023/01/04 02:57:15;;;;;;;7.75;3.50;;;;;;;6.25;100.00;99563.06;4173461;28;20255;-53
2023/01/04 02:59:27;;;;;;;4.28;2.53;;;;;;;6.29;100.00;99553.47;4161639;28;20252;-52
2023/01/04 03:06:37;;;;;;;7.70;2.97;;;;;;;6.29;100.00;99548.06;4172889;28;20738;-51
2023/01/04 03:08:44;;;;;;;6.00;4.03;;;;;;;6.31;100.00;99545.97;4172452;28;20196;-51
2023/01/04 03:13:39;;;;;;;3.08;2.67;;;;;;;6.28;100.00;99540.94;4169412;28;20281;-53
2023/01/04 03:15:44;;;;;;;3.13;2.80;;;;;;;6.28;100.00;99535.50;4174837;28;20265;-51
2023/01/04 03:17:55;;;;;;;3.85;3.33;;;;;;;6.36;100.00;99538.06;4169314;28;20209;-52
2023/01/04 03:19:57;;;;;;;3.78;3.30;;;;;;;6.38;100.00;99544.13;4172687;28;20219;-52
2023/01/04 03:21:59;;;;;;;4.63;2.60;;;;;;;6.39;100.00;99540.38;4171381;28;20248;-51
2023/01/04 03:36:36;;;;;;;2.85;2.55;;;;;;;6.48;100.00;99531.88;4170773;28;20203;-51
2023/01/04 03:48:36;;;;;;;3.22;2.95;;;;;;;6.52;100.00;99507.84;4171268;28;20213;-53
2023/01/04 03:50:44;;;;;;;3.45;3.15;;;;;;;6.52;100.00;99495.09;4169851;28;20818;-52
2023/01/04 03:52:47;;;;;;;3.25;2.95;;;;;;;6.53;100.00;99501.34;4186674;28;20233;-51
2023/01/04 03:54:49;;;;;;;1.65;1.55;;;;;;;6.57;100.00;99497.22;4155547;28;20308;-52
2023/01/04 03:56:52;;;;;;;3.53;3.22;;;;;;;6.55;100.00;99504.72;4156689;28;20262;-53
2023/01/04 03:58:53;;;;;;;3.58;3.28;;;;;;;6.55;100.00;99493.84;4181890;28;20240;-53
2023/01/04 04:01:02;;;;;;;4.90;3.47;;;;;;;6.56;100.00;99500.97;4171719;28;20248;-51
2023/01/04 04:03:08;;;;;;;2.95;2.75;;;;;;;6.55;100.00;99494.69;4172975;28;20200;-51
2023/01/04 04:10:00;;;;;;;3.55;2.80;;;;;;;6.57;100.00;99489.06;4172544;28;20663;-51
2023/01/04 04:12:02;;;;;;;3.83;2.97;;;;;;;6.58;100.00;99488.84;4167893;28;20927;-51
2023/01/04 04:14:03;;;;;;;4.40;3.13;;;;;;;6.58;100.00;99499.72;4171503;28;20274;-51
2023/01/04 04:16:05;;;;;;;8.20;2.75;;;;;;;6.60;100.00;99494.06;4171254;28;20297;-52
2023/01/04 04:18:07;;;;;;;4.07;3.47;;;;;;;6.56;100.00;99496.34;4174651;28;20255;-51
2023/01/04 04:20:10;;;;;;;3.67;3.38;;;;;;;6.56;100.00;99482.75;4172446;28;20224;-53
2023/01/04 04:22:12;;;;;;;3.53;3.22;;;;;;;6.58;100.00;99491.56;4170510;28;20246;-51
2023/01/04 04:24:19;;;;;;;3.28;3.08;;;;;;;6.60;100.00;99488.63;4171295;28;20220;-52
2023/01/04 04:26:22;;;;;;;2.53;2.33;;;;;;;6.60;100.00;99491.34;4168153;28;21201;-51
2023/01/04 04:28:24;;;;;;;4.30;3.90;;;;;;;6.61;100.00;99482.16;4170673;28;20611;-53
2023/01/04 04:30:25;;;;;;;2.85;2.65;;;;;;;6.60;100.00;99475.88;4172086;28;20692;-51
2023/01/04 04:32:27;;;;;;;3.03;2.80;;;;;;;6.60;100.00;99481.31;4170812;28;20223;-51
2023/01/04 04:34:29;;;;;;;2.85;2.65;;;;;;;6.58;100.00;99469.81;4171511;28;20279;-51
2023/01/04 04:36:31;;;;;;;3.45;3.08;;;;;;;6.54;100.00;99463.09;4169549;28;20305;-53
2023/01/04 04:38:33;;;;;;;3.30;2.35;;;;;;;6.59;100.00;99478.81;4171138;28;20255;-51
2023/01/04 04:42:58;;;;;;;2.92;2.72;;;;;;;6.58;100.00;99477.97;4169356;28;20215;-51
2023/01/04 04:44:59;;;;;;;3.47;3.03;;;;;;;6.57;100.00;99472.72;4156038;28;20240;-51
2023/01/04 04:47:01;;;;;;;3.50;3.20;;;;;;;6.62;100.00;99472.97;4167586;28;20793;-51
2023/01/04 04:49:03;;;;;;;2.58;2.38;;;;;;;6.59;100.00;99478.81;4161744;28;20673;-53
2023/01/04 04:51:05;;;;;;;2.75;2.58;;;;;;;6.62;100.00;99479.25;4162928;28;20799;-52
2023/01/04 04:53:07;;;;;;;2.70;2.45;;;;;;;6.66;100.00;99479.66;4168056;28;20212;-51
2023/01/04 04:55:09;;;;;;;4.15;2.38;;;;;;;6.65;100.00;99481.56;4166048;28;20232;-53
2023/01/04 04:57:10;;;;;;;12.98;3.00;;;;;;;6.71;100.00;99477.19;4154872;28;20254;-53
2023/01/04 04:59:13;;;;;;;3.88;3.40;;;;;;;6.68;100.00;99477.63;4169155;28;20855;-51
2023/01/04 05:01:15;;;;;;;3.35;3.05;;;;;;;6.69;100.00;99480.09;4171382;28;20230;-52
2023/01/04 05:03:17;;;;;;;3.08;2.78;;;;;;;6.68;100.00;99478.44;4170401;28;20204;-51
2023/01/04 05:05:19;;;;;;;3.45;3.15;;;;;;;6.72;100.00;99484.31;4169727;28;20631;-52
2023/01/04 05:07:20;;;;;;;2.47;2.28;;;;;;;6.70;100.00;99464.66;4154644;28;20614;-51
2023/01/04 05:09:22;;;;;;;2.70;2.50;;;;;;;6.71;100.00;99472.59;4170390;28;20201;-51
2023/01/04 05:13:44;;;;;;;2.33;2.13;;;;;;;6.76;100.00;99463.84;4170675;28;20528;-51
2023/01/04 05:15:51;;;;;;;3.63;2.70;;;;;;;6.78;100.00;99450.88;4169129;28;20570;-52
2023/01/04 05:17:53;;;;;;;3.22;2.88;;;;;;;6.75;100.00;99462.16;4183577;28;20581;-52
2023/01/04 05:19:55;;;;;;;2.58;2.38;;;;;;;6.77;100.00;99466.31;4169455;28;20313;-53
2023/01/04 05:21:56;;;;;;;2.20;2.00;;;;;;;6.76;100.00;99469.28;4181854;28;20207;-53
2023/01/04 05:23:58;;;;;;;3.42;3.13;;;;;;;6.72;100.00;99471.56;4167909;28;20716;-51
2023/01/04 05:26:01;;;;;;;5.60;2.60;;;;;;;6.65;100.00;99456.25;4168062;28;20633;-51
2023/01/04 05:28:03;;;;;;;3.63;2.65;;;;;;;6.65;100.00;99456.25;4167609;28;20601;-51
2023/01/04 05:32:25;;;;;;;3.75;2.92;;;;;;;6.63;100.00;99448.28;4165202;28;20811;-54
2023/01/04 05:34:27;;;;;;;3.55;2.47;;;;;;;6.59;100.00;99446.16;4169403;28;20274;-51
2023/01/04 05:36:28;;;;;;;2.58;2.38;;;;;;;6.59;100.00;99446.16;4170669;28;20685;-53
2023/01/04 05:38:30;;;;;;;2.90;2.28;;;;;;;6.56;100.00;99446.59;4156076;28;20573;-53
2023/01/04 05:40:32;;;;;;;2.55;2.08;;;;;;;6.52;100.00;99437.16;4167818;28;20236;-52
2023/01/04 05:42:34;;;;;;;3.45;2.42;;;;;;;6.53;100.00;99441.53;4177863;28;20667;-52
2023/01/04 05:44:36;;;;;;;3.05;2.75;;;;;;;6.52;100.00;99435.28;4168155;28;20566;-52
2023/01/04 05:46:37;;;;;;;3.03;2.70;;;;;;;6.49;100.00;99432.94;4173722;28;20964;-52
2023/01/04 05:48:39;;;;;;;3.53;3.15;;;;;;;6.49;100.00;99427.50;4166250;28;20231;-52
2023/01/04 05:50:41;;;;;;;5.05;2.63;;;;;;;6.51;100.00;99421.88;4164548;28;20219;-52
2023/01/04 05:52:43;;;;;;;2.42;2.22;;;;;;;6.53;100.00;99431.50;4165898;28;20333;-53
2023/01/04 05:54:45;;;;;;;2.33;2.13;;;;;;;6.58;100.00;99433.63;4172707;28;20212;-52
2023/01/04 05:56:47;;;;;;;5.25;2.42;;;;;;;6.51;100.00;99427.31;4171938;28;20207;-52
2023/01/04 05:58:49;;;;;;;3.33;3.03;;;;;;;6.51;100.00;99438.19;4168818;28;20244;-52
2023/01/04 06:00:51;;;;;;;3.13;2.65;;;;;;;6.57;100.00;99419.16;4171487;28;20311;-53
2023/01/04 06:02:54;;;;;;;2.38;2.17;;;;;;;6.55;100.00;99413.09;4172393;28;20274;-51
2023/01/04 06:05:02;;;;;;;2.40;2.20;;;;;;;6.53;100.00;99433.38;4171659;28;20208;-52
2023/01/04 06:07:04;;;;;;;2.88;2.60;;;;;;;6.51;100.00;99422.72;4170369;28;20306;-53
2023/01/04 06:09:06;;;;;;;2.58;2.38;;;;;;;6.47;100.00;99424.16;4174148;28;20218;-52
2023/01/04 06:11:07;;;;;;;2.78;2.58;;;;;;;6.51;100.00;99435.47;4185007;28;20344;-52
2023/01/04 06:13:09;;;;;;;1.85;1.75;;;;;;;6.56;100.00;99430.28;4169616;28;20319;-52
2023/01/04 06:15:11;;;;;;;2.42;2.25;;;;;;;6.54;100.00;99443.22;4167655;28;20212;-54
2023/01/04 06:17:13;;;;;;;2.67;2.30;;;;;;;6.56;100.00;99441.16;4172214;28;20605;-52
2023/01/04 06:19:15;;;;;;;1.88;1.77;;;;;;;6.56;100.00;99441.16;4169538;28;20231;-50
2023/01/04 06:21:29;;;;;;;3.17;2.03;;;;;;;6.58;100.00;99439.06;4170966;28;20212;-50
2023/01/04 06:23:31;;;;;;;1.90;1.77;;;;;;;6.54;100.00;99440.50;4172279;28;20245;-53
2023/01/04 06:25:33;;;;;;;3.78;2.17;;;;;;;6.53;100.00;99427.94;4188385;28;20207;-52
2023/01/04 06:27:35;;;;;;;1.92;1.70;;;;;;;6.57;100.00;99431.94;4186893;28;20222;-54
2023/01/04 06:29:37;;;;;;;1.60;1.50;;;;;;;6.59;100.00;99440.72;4171398;28;20634;-52
2023/01/04 06:31:39;;;;;;;1.73;1.63;;;;;;;6.64;100.00;99428.22;4153541;28;20243;-52
2023/01/04 06:33:41;;;;;;;2.10;1.90;;;;;;;6.65;100.00;99421.75;4172390;28;20285;-51
2023/01/04 06:35:42;;;;;;;1.75;1.65;;;;;;;6.66;100.00;99408.97;4171689;28;20723;-53
2023/01/04 06:37:44;;;;;;;2.17;1.80;;;;;;;6.63;100.00;99417.53;4152894;28;20224;-52
2023/01/04 06:39:53;;;;;;;2.08;1.92;;;;;;;6.65;100.00;99416.31;4154053;28;20332;-51
2023/01/04 06:41:56;;;;;;;1.95;1.45;;;;;;;6.64;100.00;99400.19;4170842;28;20812;-53
2023/01/04 06:44:07;;;;;;;1.40;1.30;;;;;;;6.61;100.00;99404.16;4173674;28;20199;-52
2023/01/04 06:46:09;;;;;;;2.17;1.73;;;;;;;6.70;100.00;99404.81;4170907;28;22484;-52
2023/01/04 06:48:11;;;;;;;2.90;2.10;;;;;;;6.72;100.00;99408.16;4174358;28;20208;-53
2023/01/04 06:50:18;;;;;;;2.33;1.55;;;;;;;6.75;100.00;99413.22;4154834;28;20251;-52
2023/01/04 06:52:20;;;;;;;1.73;1.63;;;;;;;6.77;100.00;99411.09;4156421;28;20598;-52
2023/01/04 06:54:22;;;;;;;1.77;1.60;;;;;;;6.77;100.00;99422.81;4170920;28;20224;-52
2023/01/04 06:56:24;;;;;;;2.17;2.00;;;;;;;6.79;100.00;99425.34;4170434;28;20207;-52
2023/01/04 06:58:26;;;;;;;1.45;1.35;;;;;;;6.83;100.00;99427.44;4173723;28;20283;-52
2023/01/04 07:00:28;;;;;;;1.65;1.55;;;;;;;6.87;100.00;99419.72;4156997;28;20738;-52
2023/01/04 07:02:30;;;;;;;1.98;1.70;;;;;;;6.85;100.00;99424.53;4172321;28;20208;-52
2023/01/04 07:04:32;;;;;;;2.13;1.98;;;;;;;6.89;100.00;99404.03;4169363;28;20986;-52
2023/01/04 07:06:35;;;;;;;1.65;1.55;;;;;;;6.86;100.00;99412.59;4170572;28;20204;-52
2023/01/04 07:08:37;;;;;;;1.70;1.60;;;;;;;6.88;100.00;99408.63;4172135;28;20219;-52
2023/01/04 07:10:40;;;;;;;2.17;1.98;;;;;;;6.89;100.00;99414.91;4185831;28;20286;-52
2023/01/04 07:12:42;;;;;;;1.67;1.58;;;;;;;6.90;100.00;99397.56;4170729;28;20677;-54
2023/01/04 07:14:44;;;;;;;1.90;1.70;;;;;;;6.88;100.00;99392.31;4170546;28;20230;-52
2023/01/04 07:16:46;;;;;;;3.00;1.70;;;;;;;6.92;100.00;99398.19;4172689;28;20287;-52
2023/01/04 07:18:48;;;;;;;3.20;2.17;;;;;;;6.91;100.00;99391.06;4158325;28;20214;-53
2023/01/04 07:20:50;;;;;;;2.40;2.08;;;;;;;6.91;100.00;99386.47;4170935;28;20262;-52
2023/01/04 07:22:52;;;;;;;2.53;1.88;;;;;;;6.93;100.00;99378.09;4170450;28;20196;-52
2023/01/04 07:24:54;;;;;;;2.63;2.05;;;;;;;6.91;100.00;99369.31;4155433;28;20213;-52
2023/01/04 07:26:59;;;;;;;2.25;2.05;;;;;;;6.90;100.00;99356.75;4168858;28;20616;-54
2023/01/04 07:29:16;;;;;;;1.50;1.40;;;;;;;6.93;100.00;99368.06;4167709;28;20893;-53
2023/01/04 07:31:18;;;;;;;3.42;2.05;;;;;;;6.92;100.00;99365.53;4159782;28;20213;-54
2023/01/04 07:33:20;;;;;;;2.17;1.98;;;;;;;6.97;100.00;99361.13;4166035;28;20262;-52
2023/01/04 07:35:23;;;;;;;4.40;1.60;;;;;;;7.01;100.00;99364.28;4170614;28;20236;-53
2023/01/04 07:37:25;;;;;;;2.03;1.92;;;;;;;7.02;100.00;99357.81;4182257;28;20207;-51
2023/01/04 07:39:27;;;;;;;2.40;2.20;;;;;;;7.03;100.00;99367.66;4167810;28;20224;-52
2023/01/04 07:41:29;;;;;;;1.60;1.50;;;;;;;7.01;100.00;99353.41;4172969;28;20230;-52
2023/01/04 07:43:32;;;;;;;1.70;1.50;;;;;;;7.06;100.00;99356.34;4172428;28;20208;-54
2023/01/04 07:45:35;;;;;;;1.52;1.42;;;;;;;7.07;100.00;99341.69;4171230;28;20200;-52
2023/01/04 07:47:37;;;;;;;3.10;1.30;;;;;;;7.07;100.00;99333.53;4158798;28;20232;-53
2023/01/04 07:49:40;;;;;;;1.90;1.80;;;;;;;7.08;100.00;99337.94;4172910;28;20239;-53
2023/01/04 07:51:47;;;;;;;1.90;1.80;;;;;;;7.11;100.00;99348.41;4169509;28;22065;-52
2023/01/04 07:53:50;;;;;;;1.50;1.40;;;;;;;7.12;100.00;99366.41;4155644;28;20218;-52
2023/01/04 07:55:56;;;;;;;2.03;1.83;;;;;;;7.07;100.00;99358.88;4165689;28;20208;-52
2023/01/04 07:57:58;;;;;;;3.42;2.55;;;;;;;7.09;100.00;99373.09;4170065;28;20663;-52
2023/01/04 08:00:00;;;;;;;4.13;2.20;;;;;;;7.13;100.00;99362.63;4167766;28;20254;-52
2023/01/04 08:02:03;;;;;;;1.90;1.63;;;;;;;7.10;100.00;99363.88;4137411;28;20220;-52
2023/01/04 08:04:06;;;;;;;1.75;1.50;;;;;;;7.12;100.00;99352.78;4169554;28;20208;-52
2023/01/04 08:06:10;;;;;;;2.28;2.08;;;;;;;7.10;100.00;99363.88;4167339;28;20208;-54
2023/01/04 08:08:12;;;;;;;1.65;1.55;;;;;;;7.14;100.00;99353.41;4169756;28;20243;-55
2023/01/04 08:10:14;;;;;;;2.53;2.30;;;;;;;7.14;100.00;99348.81;4169444;28;20234;-53
2023/01/04 08:12:18;;;;;;;2.30;2.20;;;;;;;7.16;100.00;99356.78;4160076;28;20259;-53
2023/01/04 08:14:20;;;;;;;1.60;1.50;;;;;;;7.19;100.00;99353.63;4175771;28;20305;-53
2023/01/04 08:16:31;;;;;;;1.67;1.58;;;;;;;7.17;100.00;99361.19;4169646;28;20669;-54
2023/01/04 08:18:33;;;;;;;1.63;1.50;;;;;;;7.18;100.00;99362.84;4167487;28;20880;-52
2023/01/04 08:20:34;;;;;;;3.92;1.60;;;;;;;7.15;100.00;99355.94;4166268;28;20250;-54
2023/01/04 08:22:36;;;;;;;1.50;1.40;;;;;;;7.16;100.00;99351.34;4167826;28;20262;-54
2023/01/04 08:24:38;;;;;;;2.25;1.60;;;;;;;7.21;100.00;99344.22;4168972;28;20224;-52
2023/01/04 08:26:40;;;;;;;1.95;1.67;;;;;;;7.20;100.00;99355.31;4151370;28;20294;-54
2023/01/04 08:28:43;;;;;;;1.05;0.90;;;;;;;7.20;100.00;99374.34;4170720;28;20227;-52
2023/01/04 08:30:44;;;;;;;2.05;1.95;;;;;;;7.19;100.00;99345.47;4150544;28;20678;-54
2023/01/04 08:32:49;;;;;;;2.38;2.22;;;;;;;7.16;100.00;99341.28;4155054;28;20438;-52
2023/01/04 08:34:53;;;;;;;2.25;2.03;;;;;;;7.14;100.00;99342.53;4172395;28;20258;-52
2023/01/04 08:36:55;;;;;;;2.00;1.80;;;;;;;7.17;100.00;99340.22;4168034;28;20250;-52
2023/01/04 08:38:59;;;;;;;2.83;1.90;;;;;;;7.17;100.00;99339.41;4169918;28;20227;-53
2023/01/04 08:41:03;;;;;;;2.78;1.92;;;;;;;7.15;100.00;99339.59;4174845;28;20242;-52
2023/01/04 08:43:25;;;;;;;1.52;1.35;;;;;;;7.15;100.00;99338.78;4173343;28;20232;-52
2023/01/04 08:45:28;;;;;;;1.73;1.63;;;;;;;7.16;100.00;99335.00;4173079;28;20215;-52
2023/01/04 08:47:31;;;;;;;1.60;1.50;;;;;;;7.21;100.00;99343.41;4172017;28;20234;-52
2023/01/04 08:49:33;;;;;;;4.22;1.98;;;;;;;7.20;100.00;99342.56;4170866;28;20226;-52
2023/01/04 08:51:35;;;;;;;1.67;1.58;;;;;;;7.23;100.00;99335.84;4172526;28;20242;-53
2023/01/04 08:53:43;;;;;;;2.42;2.20;;;;;;;7.24;100.00;99348.41;4172705;28;20219;-53
2023/01/04 08:55:50;;;;;;;2.38;1.70;;;;;;;7.25;100.00;99339.19;4169630;28;20606;-54
2023/01/04 08:57:53;;;;;;;2.42;2.22;;;;;;;7.28;100.00;99341.53;4157702;28;20590;-53
2023/01/04 08:59:55;;;;;;;2.33;2.13;;;;;;;7.30;100.00;99339.41;4171628;28;20273;-52
2023/01/04 09:01:59;;;;;;;2.67;2.53;;;;;;;7.35;100.00;99328.75;4173387;28;22368;-53
2023/01/04 09:04:07;;;;;;;3.00;2.75;;;;;;;7.38;100.00;99309.25;4157404;28;20238;-53
2023/01/04 09:06:12;;;;;;;1.90;1.52;;;;;;;7.39;100.00;99308.19;4174374;28;20257;-52
2023/01/04 09:08:14;;;;;;;1.88;1.60;;;;;;;7.40;100.00;99309.88;4170748;28;20604;-53
2023/01/04 09:10:16;;;;;;;2.17;1.85;;;;;;;7.43;100.00;99317.63;4157145;28;20231;-53
2023/01/04 09:12:19;;;;;;;1.80;1.70;;;;;;;7.41;100.00;99325.19;4167392;28;20211;-54
2023/01/04 09:14:23;;;;;;;1.75;1.65;;;;;;;7.46;100.00;99314.47;4170593;28;20240;-52
2023/01/04 09:16:25;;;;;;;2.53;2.03;;;;;;;7.50;100.00;99321.19;4173289;28;20687;-51
2023/01/04 09:18:30;;;;;;;1.83;1.73;;;;;;;7.51;100.00;99320.13;4170156;28;20295;-50
2023/01/04 09:20:33;;;;;;;2.22;2.03;;;;;;;7.56;100.00;99306.72;4165306;28;20282;-53
2023/01/04 09:22:36;;;;;;;3.00;2.10;;;;;;;7.57;100.00;99317.38;4175710;28;20691;-51
2023/01/04 09:24:38;;;;;;;2.08;1.98;;;;;;;7.60;100.00;99321.59;4170447;28;20212;-52
2023/01/04 09:26:40;;;;;;;2.03;1.58;;;;;;;7.60;100.00;99311.53;4172597;28;20295;-51
2023/01/04 09:28:44;;;;;;;2.08;1.55;;;;;;;7.57;100.00;99311.94;4172404;28;20207;-51
2023/01/04 09:30:46;;;;;;;1.73;1.63;;;;;;;7.61;100.00;99317.84;4170160;28;20228;-51
2023/01/04 09:32:48;;;;;;;1.90;1.80;;;;;;;7.60;100.00;99299.78;4170250;28;20745;-51
2023/01/04 09:34:50;;;;;;;2.13;1.98;;;;;;;7.64;100.00;99306.50;4167887;28;20208;-51
2023/01/04 09:36:53;;;;;;;1.83;1.60;;;;;;;7.66;100.00;99305.25;4173016;28;20240;-51
2023/01/04 09:38:55;;;;;;;3.22;1.75;;;;;;;7.70;100.00;99292.03;4167487;28;20207;-52
2023/01/04 09:41:00;;;;;;;2.13;1.95;;;;;;;7.74;100.00;99296.00;4171846;28;20694;-51
2023/01/04 09:43:03;;;;;;;2.42;1.77;;;;;;;7.70;100.00;99286.59;4168783;28;20212;-52
2023/01/04 09:45:25;;;;;;;6.78;1.95;;;;;;;7.73;100.00;99294.31;4169583;28;20287;-51
2023/01/04 09:47:33;;;;;;;1.73;1.63;;;;;;;7.74;100.00;99307.75;4169969;28;20208;-52
2023/01/04 09:49:51;;;;;;;2.17;1.55;;;;;;;7.71;100.00;99315.50;4172302;28;20588;-51
2023/01/04 09:52:31;;;;;;;1.95;1.42;;;;;;;7.75;100.00;99305.88;4166216;28;20207;-51
2023/01/04 09:54:54;;;;;;;1.80;1.70;;;;;;;7.75;100.00;99319.50;4163415;28;20242;-51
2023/01/04 09:57:03;;;;;;;1.70;1.60;;;;;;;7.77;100.00;99311.94;4172302;28;20199;-52
2023/01/04 09:59:11;;;;;;;1.85;1.75;;;;;;;7.79;100.00;99312.53;4170277;28;20209;-52
2023/01/04 10:01:18;;;;;;;3.10;1.92;;;;;;;7.83;100.00;99324.69;4168020;28;20281;-51
2023/01/04 10:03:28;;;;;;;2.10;1.92;;;;;;;7.82;100.00;99307.50;4184877;28;20286;-51
2023/01/04 10:05:32;;;;;;;1.67;1.52;;;;;;;7.82;100.00;99309.41;4172089;28;20215;-52
2023/01/04 10:07:34;;;;;;;1.88;1.70;;;;;;;7.86;100.00;99307.91;4169312;28;20211;-52
2023/01/04 10:09:41;;;;;;;2.00;1.90;;;;;;;7.86;100.00;99314.22;4155395;28;20247;-52
2023/01/04 10:12:12;;;;;;;1.85;1.75;;;;;;;7.90;100.00;99301.00;4172632;28;20191;-52
2023/01/04 10:14:33;;;;;;;1.25;1.23;;;;;;;7.86;100.00;99288.84;4156776;28;20212;-52
2023/01/04 10:17:13;;;;;;;1.42;1.33;;;;;;;7.93;100.00;99300.56;4184661;28;20231;-52
2023/01/04 10:19:49;;;;;;;1.80;1.70;;;;;;;7.92;100.00;99309.78;4166898;28;20201;-52
2023/01/04 10:22:33;;;;;;;1.70;1.60;;;;;;;7.97;100.00;99290.91;4171672;28;20852;-53
2023/01/04 10:24:45;;;;;;;1.60;1.50;;;;;;;8.01;100.00;99281.28;4169780;28;20700;-52
2023/01/04 10:26:49;;;;;;;1.92;1.83;;;;;;;8.00;100.00;99280.41;4171968;28;20203;-53
2023/01/04 10:28:58;;;;;;;1.95;1.85;;;;;;;8.04;100.00;99284.41;4168732;28;20227;-52
2023/01/04 10:31:11;;;;;;;1.77;1.67;;;;;;;8.04;100.00;99289.00;4171390;28;20273;-51
2023/01/04 10:33:45;;;;;;;1.48;1.38;;;;;;;8.03;100.00;99298.25;4168021;28;20658;-51
2023/01/04 10:35:47;;;;;;;2.42;2.17;;;;;;;8.04;100.00;99302.63;4174398;28;20677;-51
2023/01/04 10:37:56;;;;;;;2.10;1.80;;;;;;;8.05;100.00;99288.78;4173044;28;20208;-51
2023/01/04 10:39:58;;;;;;;3.53;2.08;;;;;;;8.04;100.00;99302.63;4170584;28;20246;-51